createdAt,value
2019-04-23T00:01:48.810Z,30
2019-04-23T00:10:11.600Z,29.9
2019-04-23T00:18:49.162Z,30.1
2019-04-23T00:26:30.325Z,30.5
2019-04-23T00:35:17.873Z,30.8
2019-04-23T00:43:42.715Z,31
2019-04-23T00:51:42.279Z,31.3
2019-04-23T00:59:37.509Z,31.5
2019-04-23T01:07:37.959Z,31.8
2019-04-23T01:15:32.207Z,32
2019-04-23T01:22:52.918Z,32.2
2019-04-23T01:26:49.872Z,32.3
2019-04-23T01:35:15.919Z,32.5
2019-04-23T01:43:40.866Z,32.6
2019-04-23T01:52:07.277Z,32.8
2019-04-23T02:00:46.697Z,33
2019-04-23T02:09:41.622Z,33.1
2019-04-23T02:18:15.619Z,33.7
2019-04-23T02:27:18.799Z,34
2019-04-23T02:37:44.898Z,34.1
2019-04-23T02:47:52.310Z,34.6
2019-04-23T02:57:05.409Z,34.6
2019-04-23T03:07:22.024Z,35.1
2019-04-23T03:17:24.011Z,34.9
2019-04-23T03:45:58.527Z,35
2019-04-23T04:06:13.219Z,35.5
2019-04-23T04:15:30.834Z,35.5
2019-04-23T04:25:06.464Z,35.5
2019-04-23T04:45:49.482Z,36.4
2019-04-23T04:56:13.815Z,35.9
2019-04-23T05:06:43.554Z,36
2019-04-23T05:17:58.801Z,36
2019-04-23T05:28:02.557Z,35.9
2019-04-23T05:36:59.699Z,36
2019-04-23T05:47:50.389Z,36.3
2019-04-23T05:56:26.810Z,36
2019-04-23T06:05:46.026Z,36
2019-04-23T06:23:57.758Z,35.5
2019-04-23T06:33:13.094Z,35.6
2019-04-23T06:41:49.555Z,35.2
2019-04-23T06:50:03.354Z,35.2
2019-04-23T06:58:04.255Z,35.4
2019-04-23T07:06:42.518Z,35.4
2019-04-23T07:15:44.588Z,35.2
2019-04-23T07:23:53.453Z,35.1
2019-04-23T07:33:03.878Z,35.1
2019-04-23T07:42:02.574Z,34.7
2019-04-23T07:51:19.321Z,34.8
2019-04-23T08:09:23.860Z,35.4
2019-04-23T08:27:48.302Z,35.1
2019-04-23T08:36:54.669Z,35.2
2019-04-23T08:46:50.700Z,35.1
2019-04-23T08:56:01.773Z,35.2
2019-04-23T09:04:59.569Z,34.5
2019-04-23T09:30:31.553Z,34
2019-04-23T09:39:27.147Z,33.7
2019-04-23T09:49:05.377Z,34.2
2019-04-23T09:58:01.967Z,34.3
2019-04-23T10:05:50.929Z,33.3
2019-04-23T10:10:28.032Z,33.2
2019-04-23T10:13:45.600Z,33.2
2019-04-23T10:17:04.256Z,33.2
2019-04-23T10:20:20.554Z,33
2019-04-23T10:23:36.997Z,33
2019-04-23T10:26:55.762Z,33
2019-04-23T10:30:15.223Z,32.8
2019-04-23T10:33:29.592Z,32.8
2019-04-23T10:36:44.746Z,33
2019-04-23T10:40:13.125Z,33
2019-04-23T10:44:00.618Z,33
2019-04-23T10:48:27.829Z,33.1
2019-04-23T10:57:35.859Z,33.1
2019-04-23T11:06:16.301Z,32.8
2019-04-23T11:15:55.083Z,32.7
2019-04-23T11:46:39.398Z,33
2019-04-23T11:58:05.574Z,33.1
2019-04-23T12:07:17.133Z,32.8
2019-04-23T12:16:27.691Z,32.6
2019-04-23T12:27:32.977Z,32.8
2019-04-23T12:36:27.955Z,32.5
2019-04-23T12:45:54.143Z,32.9
2019-04-23T12:56:07.991Z,32.6
2019-04-23T13:04:48.273Z,32.5
2019-04-23T13:13:51.765Z,33
2019-04-23T13:23:00.552Z,32.5
2019-04-23T13:31:20.057Z,32.5
2019-04-23T13:40:22.570Z,32.4
2019-04-23T13:49:56.882Z,32.2
2019-04-23T13:59:48.157Z,32.4
2019-04-23T14:09:44.929Z,33.1
2019-04-23T14:19:22.446Z,32.9
2019-04-23T14:29:12.022Z,32.8
2019-04-23T14:38:42.361Z,32.6
2019-04-23T14:58:00.150Z,32.2
2019-04-23T15:07:07.353Z,33
2019-04-23T15:16:42.936Z,32.6
2019-04-23T15:27:19.481Z,32.5
2019-04-23T15:34:07.338Z,32.2
2019-04-23T15:43:36.840Z,32.2
2019-04-23T15:53:04.551Z,32.6
2019-04-23T16:01:43.816Z,32.4
2019-04-23T16:04:53.157Z,32.5
2019-04-23T16:09:09.231Z,32.3
2019-04-23T16:18:58.462Z,32.3
2019-04-23T16:28:17.117Z,32.1
2019-04-23T16:38:17.817Z,32.1
2019-04-23T16:48:05.929Z,32.2
2019-04-23T16:57:34.952Z,32.3
2019-04-23T17:07:11.632Z,32.3
2019-04-23T17:16:21.120Z,32.4
2019-04-23T17:25:25.672Z,32.6
2019-04-23T17:34:44.512Z,32.6
2019-04-23T17:44:32.821Z,32.7
2019-04-23T17:54:02.789Z,32.9
2019-04-23T18:03:39.363Z,32.9
2019-04-23T18:13:13.039Z,33.1
2019-04-23T18:31:19.562Z,33.5
2019-04-23T18:39:51.347Z,33.8
2019-04-23T18:48:56.305Z,34.1
2019-04-23T18:58:19.037Z,34.3
2019-04-23T19:08:06.761Z,34.5
2019-04-23T19:36:53.824Z,34.6
2019-04-23T19:45:38.388Z,34.5
2019-04-23T19:55:15.833Z,34.4
2019-04-23T20:04:20.263Z,34.3
2019-04-23T20:13:37.537Z,34.1
2019-04-23T20:33:11.794Z,34.1
2019-04-23T20:42:56.642Z,33.9
2019-04-23T20:52:28.505Z,33.8
2019-04-23T21:01:55.372Z,33.8
2019-04-23T21:11:39.906Z,33.7
2019-04-23T21:21:16.166Z,33.6
2019-04-23T21:30:19.533Z,33.6
2019-04-23T21:40:18.701Z,33.5
2019-04-23T21:50:33.922Z,33.5
2019-04-23T21:59:08.786Z,33.4
2019-04-23T22:08:57.542Z,33.4
2019-04-23T22:28:15.701Z,33.4
2019-04-23T22:37:47.864Z,33.4
2019-04-23T22:56:04.883Z,33.4
2019-04-23T23:05:55.764Z,33.5
2019-04-23T23:15:48.529Z,33.5
2019-04-23T23:24:55.420Z,33.5
2019-04-23T23:43:39.319Z,33.6
2019-04-23T23:52:53.122Z,33.6
